x

Bw Pioneer Buoy - Walker Ridge 249 (42360) Wave Buoy

6:00pm - Sun 28th Aug 2016 All times are UTC.

  • Sig Wave height 2.6ft
  • Peak Period 6s
  • Wind
    11mph, 13mph gusts
  • Sea Temp 88°f
  • Air Temp 84°f
  • Sea Pressure 1013.6mb

More Historic Weather Station data

Upgrade to MSW Pro to gain access to the past 30 days of data for over 8000 Wavebouys and Weather Stations around the globe.

Join Pro

Comparision Forecast

View Surf forecast
   
Sun 08/28 6:00pm 2.5ft 6s 11 13 mph 1013.6mb 88f 84f
5:00pm 3ft 6s 11 13 mph 1014.1mb 88f 83f
4:00pm 2.5ft 6s 9 11 mph 1014.3mb 88f 85f
3:00pm 3ft 6s 9 11 mph 1014.1mb 88f 85f
2:00pm 3ft 6s 13
mph
1014.1mb 88f 85f
1:00pm 3ft 6s 9 11 mph 1013.6mb 88f 85f
12:00pm 2.5ft 6s 4
mph
1013.1mb 88f 85f
11:00am 3ft 6s 4
mph
1012.8mb 87f 85f
10:00am 3ft 6s 7 9 mph 1012.6mb 87f 84f
9:00am 2.5ft 6s 7 9 mph - 88f -
8:00am 2.5ft 6s 11 16 mph 1012.6mb 88f 83f
7:00am 2.5ft 6s 9
mph
1012.8mb 88f 85f
6:00am 3ft 5s 9 11 mph 1013.3mb 88f 84f
5:00am 3ft 6s 13 16 mph 1013.3mb 88f 83f
4:00am 2.5ft 6s 18 20 mph 1013.8mb 88f 84f
3:00am 2.5ft 5s 11 13 mph 1013.3mb 88f 85f
2:00am 2.5ft 6s 13 16 mph 1013.1mb 88f 85f
1:00am 2.5ft 6s 11 13 mph 1012.4mb 88f 85f
12:00am 2.5ft 6s 11 13 mph 1011.9mb 88f 85f
Sat 08/27 11:00pm 2.5ft 6s 11 13 mph 1011.9mb 88f 85f
10:00pm 2.5ft 7s 13 18 mph 1011.6mb 88f 85f
9:00pm 2.5ft 6s 9
mph
1012.1mb 88f 85f
8:00pm 2.5ft 7s 7 9 mph 1012.6mb 88f 85f
7:00pm 2.5ft 6s 4
mph
1013.3mb 88f 86f
6:00pm 3ft 6s 2
mph
1013.8mb 88f 87f
5:00pm 2.5ft 6s 7
mph
1014.1mb 88f 85f
4:00pm 3ft 6s 7 9 mph 1014.3mb 88f 85f
3:00pm 3ft 6s 7
mph
1013.8mb 87f 85f
2:00pm 3ft 6s 9
mph
1013.6mb 87f 85f
1:00pm 3ft 6s 9 11 mph 1013.3mb 87f 84f
12:00pm 3.5ft 7s 9
mph
1013.1mb 87f 84f
11:00am 3.5ft 7s 9 11 mph 1012.6mb 87f 84f
10:00am 3.5ft 6s 9
mph
1012.6mb 87f 84f
9:00am 3.5ft 7s 9 11 mph 1012.6mb 87f 84f
8:00am 4ft 6s 11 13 mph - 87f -
7:00am 4ft 6s 16 18 mph 1013.3mb 87f 84f
6:00am  -   -  18
mph
- 87f -
5:00am 3.5ft 7s 11 13 mph 1013.8mb 87f 84f
4:00am 4.5ft 7s 11
mph
- 88f -
3:00am 4.5ft 7s 13 16 mph 1013.3mb 88f 83f
2:00am 4ft 7s 13 16 mph - 88f -
1:00am 4.5ft 7s 13 16 mph 1012.6mb 88f 83f
12:00am 4.5ft 7s 13 16 mph 1012.4mb 88f 83f
Fri 08/26 11:00pm 4ft 7s 18 20 mph 1012.6mb 88f 84f
10:00pm 3.5ft 7s 16 18 mph 1013.1mb 88f 84f
9:00pm 3.5ft 7s 13 16 mph 1013.3mb 88f 84f
8:00pm 4.5ft 7s 13 16 mph 1013.6mb 88f 84f
7:00pm 4ft 7s 13 16 mph 1013.8mb 88f 84f
6:00pm 3.5ft 7s 11 13 mph 1014.5mb 88f 84f
5:00pm 4ft 6s 7
mph
1015.3mb 88f 85f
4:00pm 4ft 7s 2 4 mph 1015.3mb 87f 86f
3:00pm 3.5ft 7s 2
mph
1015.3mb 87f 87f
2:00pm 3.5ft 6s 2 4 mph 1015mb 87f 85f
1:00pm 4ft 6s 4 7 mph 1014.8mb 87f 84f
12:00pm 4ft 6s 4 7 mph 1014.5mb 87f 84f
11:00am 3.5ft 6s 13 16 mph 1014.1mb 87f 82f
10:00am 3.5ft 6s 18 25 mph 1014.3mb 87f 83f
9:00am 3.5ft 6s 13 16 mph 1013.8mb 87f 84f
8:00am 3.5ft 6s 11 16 mph 1014.3mb 87f 85f
7:00am 3.5ft 6s 9 11 mph 1014.5mb 87f 84f
6:00am 3.5ft 6s 9 11 mph 1014.8mb 87f 84f
5:00am 3.5ft 6s 16 20 mph 1015mb 87f 84f
4:00am 3.5ft 5s 16 18 mph 1015.3mb 87f 84f
3:00am 4ft 5s 7 11 mph 1015.5mb 87f 82f
2:00am 4.5ft 6s 11 13 mph 1014.8mb 87f 82f
1:00am 4ft 6s 18 22 mph 1015.3mb 88f 83f
12:00am 3.5ft 5s 25 31 mph 1015mb 88f 81f
Thu 08/25 11:00pm 3ft 6s 27 31 mph 1015.5mb 88f 80f
10:00pm 3ft 6s 16 18 mph 1015.5mb 88f 78f
9:00pm 2.5ft 5s 20 22 mph 1016mb 88f 81f
8:00pm 3ft 5s 11 13 mph 1016.8mb 88f 82f
7:00pm 2.5ft 5s 20 22 mph 1016.3mb 88f 80f
6:00pm 2ft 5s 2 7 mph 1017.5mb 88f 78f
5:00pm 2.5ft 5s 9 11 mph 1017.2mb 88f 80f
4:00pm 2.5ft 5s 2 4 mph 1017.5mb 88f 86f
3:00pm 2.5ft 5s 16 20 mph 1017.5mb 88f 84f
2:00pm 2.5ft 5s 7 9 mph 1017.2mb 88f 87f
1:00pm 2.5ft 5s 9 11 mph 1016.8mb 88f 86f
12:00pm 2ft 5s 11
mph
1016.5mb 88f 86f
11:00am 2ft 4s 9 11 mph 1016.3mb 88f 85f
10:00am 2ft 5s 13
mph
1016mb 88f 86f
9:00am 2ft 4s 9 13 mph 1016mb 88f 86f
8:00am 2ft 4s 11 13 mph 1016.3mb 88f 86f
7:00am 2ft 4s 9 11 mph 1016.8mb 88f 86f
6:00am 2ft 5s 13 16 mph 1017mb 88f 86f
5:00am 2ft 5s 13 16 mph 1017.5mb 88f 86f
4:00am 1.6ft 4s 11 13 mph 1017.7mb 88f 86f
3:00am 1.6ft 5s 13
mph
1018.5mb 88f 86f
2:00am 1.6ft 5s 13
mph
1018mb 88f 86f
1:00am 1.6ft 6s 13
mph
1017.5mb 88f 86f
12:00am 1.6ft 5s 13 16 mph 1017.5mb 88f 86f
Wed 08/24 11:00pm 1.6ft 5s 11
mph
1017.7mb 88f 86f
10:00pm 1.6ft 5s 9 11 mph 1018mb 88f 86f
9:00pm 1.6ft 5s 7 9 mph 1018.2mb 88f 86f
8:00pm 1.6ft 5s 9
mph
1019mb 88f 86f